sensor_id;sensor_type;location;lat;lon;timestamp;temperature;humidity
31443;SHT31;18065;55.876;9.830;2024-03-25T00:00:43;22.13;52.88
31443;SHT31;18065;55.876;9.830;2024-03-25T00:03:09;22.11;52.92
31443;SHT31;18065;55.876;9.830;2024-03-25T00:05:36;22.13;52.90
31443;SHT31;18065;55.876;9.830;2024-03-25T00:08:02;22.11;52.90
31443;SHT31;18065;55.876;9.830;2024-03-25T00:10:31;22.14;52.90
31443;SHT31;18065;55.876;9.830;2024-03-25T00:12:57;22.11;52.94
31443;SHT31;18065;55.876;9.830;2024-03-25T00:15:23;22.14;52.89
31443;SHT31;18065;55.876;9.830;2024-03-25T00:17:50;22.10;52.94
31443;SHT31;18065;55.876;9.830;2024-03-25T00:20:16;22.11;52.90
31443;SHT31;18065;55.876;9.830;2024-03-25T00:22:42;22.13;52.97
31443;SHT31;18065;55.876;9.830;2024-03-25T00:25:08;22.11;52.98
31443;SHT31;18065;55.876;9.830;2024-03-25T00:27:37;22.10;52.96
31443;SHT31;18065;55.876;9.830;2024-03-25T00:30:05;22.08;53.00
31443;SHT31;18065;55.876;9.830;2024-03-25T00:32:31;22.10;53.01
31443;SHT31;18065;55.876;9.830;2024-03-25T00:34:57;22.11;52.99
31443;SHT31;18065;55.876;9.830;2024-03-25T00:37:23;22.11;53.03
31443;SHT31;18065;55.876;9.830;2024-03-25T00:39:49;22.11;53.01
31443;SHT31;18065;55.876;9.830;2024-03-25T00:42:16;22.13;53.06
31443;SHT31;18065;55.876;9.830;2024-03-25T00:44:44;22.10;53.06
31443;SHT31;18065;55.876;9.830;2024-03-25T00:47:10;22.08;53.07
31443;SHT31;18065;55.876;9.830;2024-03-25T00:49:37;22.10;53.08
31443;SHT31;18065;55.876;9.830;2024-03-25T00:52:04;22.11;53.11
31443;SHT31;18065;55.876;9.830;2024-03-25T00:54:30;22.08;53.11
31443;SHT31;18065;55.876;9.830;2024-03-25T00:56:56;22.08;53.13
31443;SHT31;18065;55.876;9.830;2024-03-25T00:59:22;22.10;53.13
31443;SHT31;18065;55.876;9.830;2024-03-25T01:01:51;22.07;53.13
31443;SHT31;18065;55.876;9.830;2024-03-25T01:04:17;22.08;53.12
31443;SHT31;18065;55.876;9.830;2024-03-25T01:06:43;22.08;53.11
31443;SHT31;18065;55.876;9.830;2024-03-25T01:09:10;22.08;53.12
31443;SHT31;18065;55.876;9.830;2024-03-25T01:11:36;22.13;53.11
31443;SHT31;18065;55.876;9.830;2024-03-25T01:14:02;22.08;53.14
31443;SHT31;18065;55.876;9.830;2024-03-25T01:16:28;22.10;53.18
31443;SHT31;18065;55.876;9.830;2024-03-25T01:18:57;22.10;53.11
31443;SHT31;18065;55.876;9.830;2024-03-25T01:21:23;22.07;53.15
31443;SHT31;18065;55.876;9.830;2024-03-25T01:23:49;22.07;53.23
31443;SHT31;18065;55.876;9.830;2024-03-25T01:26:15;22.07;53.23
31443;SHT31;18065;55.876;9.830;2024-03-25T01:28:41;22.08;53.20
31443;SHT31;18065;55.876;9.830;2024-03-25T01:31:07;22.08;53.24
31443;SHT31;18065;55.876;9.830;2024-03-25T01:33:33;22.10;53.23
31443;SHT31;18065;55.876;9.830;2024-03-25T01:36:02;22.07;53.14
31443;SHT31;18065;55.876;9.830;2024-03-25T01:38:28;22.07;53.14
31443;SHT31;18065;55.876;9.830;2024-03-25T01:40:55;22.10;53.20
31443;SHT31;18065;55.876;9.830;2024-03-25T01:43:21;22.08;53.25
31443;SHT31;18065;55.876;9.830;2024-03-25T01:45:47;22.06;53.19
31443;SHT31;18065;55.876;9.830;2024-03-25T01:48:13;22.08;53.22
31443;SHT31;18065;55.876;9.830;2024-03-25T01:50:41;22.10;53.19
31443;SHT31;18065;55.876;9.830;2024-03-25T01:53:12;22.10;53.19
31443;SHT31;18065;55.876;9.830;2024-03-25T01:55:39;22.07;53.23
31443;SHT31;18065;55.876;9.830;2024-03-25T01:58:06;22.07;53.19
31443;SHT31;18065;55.876;9.830;2024-03-25T02:00:32;22.07;53.28
31443;SHT31;18065;55.876;9.830;2024-03-25T02:02:59;22.03;53.25
31443;SHT31;18065;55.876;9.830;2024-03-25T02:05:25;22.06;53.25
31443;SHT31;18065;55.876;9.830;2024-03-25T02:07:51;22.08;53.23
31443;SHT31;18065;55.876;9.830;2024-03-25T02:10:21;22.07;53.23
31443;SHT31;18065;55.876;9.830;2024-03-25T02:12:47;22.01;53.30
31443;SHT31;18065;55.876;9.830;2024-03-25T02:15:14;22.03;53.25
31443;SHT31;18065;55.876;9.830;2024-03-25T02:17:41;22.04;53.30
31443;SHT31;18065;55.876;9.830;2024-03-25T02:20:08;22.04;53.25
31443;SHT31;18065;55.876;9.830;2024-03-25T02:22:35;22.03;53.22
31443;SHT31;18065;55.876;9.830;2024-03-25T02:25:04;22.04;53.28
31443;SHT31;18065;55.876;9.830;2024-03-25T02:27:34;22.00;53.25
31443;SHT31;18065;55.876;9.830;2024-03-25T02:30:04;22.01;53.22
31443;SHT31;18065;55.876;9.830;2024-03-25T02:32:31;22.03;53.25
31443;SHT31;18065;55.876;9.830;2024-03-25T02:34:58;22.00;53.27
31443;SHT31;18065;55.876;9.830;2024-03-25T02:37:24;22.01;53.29
31443;SHT31;18065;55.876;9.830;2024-03-25T02:39:51;22.01;53.24
31443;SHT31;18065;55.876;9.830;2024-03-25T02:42:17;22.03;53.22
31443;SHT31;18065;55.876;9.830;2024-03-25T02:44:46;22.01;53.21
31443;SHT31;18065;55.876;9.830;2024-03-25T02:47:12;22.03;53.18
31443;SHT31;18065;55.876;9.830;2024-03-25T02:49:38;22.01;53.18
31443;SHT31;18065;55.876;9.830;2024-03-25T02:52:05;22.01;53.18
31443;SHT31;18065;55.876;9.830;2024-03-25T02:54:31;22.03;53.19
31443;SHT31;18065;55.876;9.830;2024-03-25T02:56:57;22.04;53.23
31443;SHT31;18065;55.876;9.830;2024-03-25T02:59:24;22.04;53.25
31443;SHT31;18065;55.876;9.830;2024-03-25T03:01:52;22.01;53.23
31443;SHT31;18065;55.876;9.830;2024-03-25T03:04:18;22.03;53.29
31443;SHT31;18065;55.876;9.830;2024-03-25T03:06:44;22.01;53.31
31443;SHT31;18065;55.876;9.830;2024-03-25T03:09:11;22.03;53.31
31443;SHT31;18065;55.876;9.830;2024-03-25T03:11:37;22.01;53.31
31443;SHT31;18065;55.876;9.830;2024-03-25T03:14:03;22.01;53.35
31443;SHT31;18065;55.876;9.830;2024-03-25T03:16:30;22.01;53.31
31443;SHT31;18065;55.876;9.830;2024-03-25T03:18:58;22.03;53.27
31443;SHT31;18065;55.876;9.830;2024-03-25T03:21:25;22.03;53.35
31443;SHT31;18065;55.876;9.830;2024-03-25T03:23:51;22.01;53.37
31443;SHT31;18065;55.876;9.830;2024-03-25T03:26:17;22.01;53.37
31443;SHT31;18065;55.876;9.830;2024-03-25T03:28:43;22.01;53.40
31443;SHT31;18065;55.876;9.830;2024-03-25T03:31:09;22.01;53.38
31443;SHT31;18065;55.876;9.830;2024-03-25T03:33:35;22.00;53.38
31443;SHT31;18065;55.876;9.830;2024-03-25T03:36:05;22.00;53.37
31443;SHT31;18065;55.876;9.830;2024-03-25T03:38:31;22.00;53.37
31443;SHT31;18065;55.876;9.830;2024-03-25T03:40:58;22.00;53.38
31443;SHT31;18065;55.876;9.830;2024-03-25T03:43:24;21.97;53.37
31443;SHT31;18065;55.876;9.830;2024-03-25T03:45:50;21.96;53.36
31443;SHT31;18065;55.876;9.830;2024-03-25T03:48:16;21.98;53.37
31443;SHT31;18065;55.876;9.830;2024-03-25T03:50:43;21.98;53.32
31443;SHT31;18065;55.876;9.830;2024-03-25T03:53:11;21.97;53.28
31443;SHT31;18065;55.876;9.830;2024-03-25T03:55:38;22.00;53.34
31443;SHT31;18065;55.876;9.830;2024-03-25T03:58:04;21.98;53.34
31443;SHT31;18065;55.876;9.830;2024-03-25T04:00:33;21.97;53.31
31443;SHT31;18065;55.876;9.830;2024-03-25T04:02:59;21.98;53.31
31443;SHT31;18065;55.876;9.830;2024-03-25T04:05:28;21.97;53.31
31443;SHT31;18065;55.876;9.830;2024-03-25T04:07:54;21.97;53.31
31443;SHT31;18065;55.876;9.830;2024-03-25T04:10:23;21.98;53.31
31443;SHT31;18065;55.876;9.830;2024-03-25T04:12:49;21.98;53.35
31443;SHT31;18065;55.876;9.830;2024-03-25T04:15:16;21.97;53.39
31443;SHT31;18065;55.876;9.830;2024-03-25T04:17:43;21.93;53.45
31443;SHT31;18065;55.876;9.830;2024-03-25T04:20:11;21.97;53.44
31443;SHT31;18065;55.876;9.830;2024-03-25T04:22:40;21.97;53.41
31443;SHT31;18065;55.876;9.830;2024-03-25T04:25:07;21.96;53.39
31443;SHT31;18065;55.876;9.830;2024-03-25T04:27:36;21.96;53.39
31443;SHT31;18065;55.876;9.830;2024-03-25T04:30:02;21.97;53.41
31443;SHT31;18065;55.876;9.830;2024-03-25T04:32:28;21.97;53.48
31443;SHT31;18065;55.876;9.830;2024-03-25T04:34:54;21.96;53.44
31443;SHT31;18065;55.876;9.830;2024-03-25T04:37:20;21.96;53.43
31443;SHT31;18065;55.876;9.830;2024-03-25T04:39:46;21.96;53.45
31443;SHT31;18065;55.876;9.830;2024-03-25T04:42:13;21.97;53.46
31443;SHT31;18065;55.876;9.830;2024-03-25T04:44:41;21.94;53.42
31443;SHT31;18065;55.876;9.830;2024-03-25T04:47:07;21.94;53.46
31443;SHT31;18065;55.876;9.830;2024-03-25T04:49:33;21.94;53.39
31443;SHT31;18065;55.876;9.830;2024-03-25T04:52:00;21.94;53.40
31443;SHT31;18065;55.876;9.830;2024-03-25T04:54:26;21.94;53.41
31443;SHT31;18065;55.876;9.830;2024-03-25T04:56:52;21.96;53.39
31443;SHT31;18065;55.876;9.830;2024-03-25T04:59:18;21.94;53.39
31443;SHT31;18065;55.876;9.830;2024-03-25T05:01:47;21.93;53.33
31443;SHT31;18065;55.876;9.830;2024-03-25T05:04:13;21.94;53.37
31443;SHT31;18065;55.876;9.830;2024-03-25T05:06:39;21.94;53.40
31443;SHT31;18065;55.876;9.830;2024-03-25T05:09:05;21.94;53.38
31443;SHT31;18065;55.876;9.830;2024-03-25T05:11:31;21.94;53.39
31443;SHT31;18065;55.876;9.830;2024-03-25T05:13:58;21.93;53.44
31443;SHT31;18065;55.876;9.830;2024-03-25T05:16:24;21.93;53.41
31443;SHT31;18065;55.876;9.830;2024-03-25T05:18:52;21.93;53.40
31443;SHT31;18065;55.876;9.830;2024-03-25T05:21:18;21.92;53.38
31443;SHT31;18065;55.876;9.830;2024-03-25T05:23:45;21.93;53.38
31443;SHT31;18065;55.876;9.830;2024-03-25T05:26:11;21.93;53.37
31443;SHT31;18065;55.876;9.830;2024-03-25T05:28:37;21.94;53.38
31443;SHT31;18065;55.876;9.830;2024-03-25T05:31:06;21.92;53.36
31443;SHT31;18065;55.876;9.830;2024-03-25T05:33:32;21.89;53.39
31443;SHT31;18065;55.876;9.830;2024-03-25T05:36:01;21.93;53.35
31443;SHT31;18065;55.876;9.830;2024-03-25T05:38:28;21.90;53.37
31443;SHT31;18065;55.876;9.830;2024-03-25T05:40:54;21.90;53.38
31443;SHT31;18065;55.876;9.830;2024-03-25T05:43:20;21.92;53.39
31443;SHT31;18065;55.876;9.830;2024-03-25T05:45:53;21.90;53.28
31443;SHT31;18065;55.876;9.830;2024-03-25T05:48:19;21.90;53.33
31443;SHT31;18065;55.876;9.830;2024-03-25T05:50:45;21.92;53.40
31443;SHT31;18065;55.876;9.830;2024-03-25T05:53:14;21.93;53.62
31443;SHT31;18065;55.876;9.830;2024-03-25T05:55:40;21.97;54.44
31443;SHT31;18065;55.876;9.830;2024-03-25T05:58:06;21.98;55.14
31443;SHT31;18065;55.876;9.830;2024-03-25T06:00:32;22.01;55.11
31443;SHT31;18065;55.876;9.830;2024-03-25T06:02:58;25.16;47.25
31443;SHT31;18065;55.876;9.830;2024-03-25T06:05:24;29.57;38.44
31443;SHT31;18065;55.876;9.830;2024-03-25T06:07:51;31.78;34.68
31443;SHT31;18065;55.876;9.830;2024-03-25T06:10:19;32.92;32.95
31443;SHT31;18065;55.876;9.830;2024-03-25T06:12:45;33.08;32.66
31443;SHT31;18065;55.876;9.830;2024-03-25T06:15:12;32.53;33.54
31443;SHT31;18065;55.876;9.830;2024-03-25T06:17:38;31.98;34.59
31443;SHT31;18065;55.876;9.830;2024-03-25T06:20:05;31.43;35.46
31443;SHT31;18065;55.876;9.830;2024-03-25T06:22:31;30.89;36.32
31443;SHT31;18065;55.876;9.830;2024-03-25T06:24:57;30.32;36.28
31443;SHT31;18065;55.876;9.830;2024-03-25T06:27:26;29.69;37.10
31443;SHT31;18065;55.876;9.830;2024-03-25T06:29:52;29.18;37.94
31443;SHT31;18065;55.876;9.830;2024-03-25T06:32:18;28.76;38.86
31443;SHT31;18065;55.876;9.830;2024-03-25T06:34:59;28.26;39.67
31443;SHT31;18065;55.876;9.830;2024-03-25T06:37:25;27.88;40.33
31443;SHT31;18065;55.876;9.830;2024-03-25T06:39:52;27.51;41.04
31443;SHT31;18065;55.876;9.830;2024-03-25T06:42:18;27.16;41.64
31443;SHT31;18065;55.876;9.830;2024-03-25T06:44:47;26.95;42.08
31443;SHT31;18065;55.876;9.830;2024-03-25T06:47:13;26.70;42.52
31443;SHT31;18065;55.876;9.830;2024-03-25T06:49:39;26.47;42.98
31443;SHT31;18065;55.876;9.830;2024-03-25T06:52:06;26.21;43.53
31443;SHT31;18065;55.876;9.830;2024-03-25T06:54:32;25.98;43.96
31443;SHT31;18065;55.876;9.830;2024-03-25T06:56:58;25.73;44.45
31443;SHT31;18065;55.876;9.830;2024-03-25T06:59:24;25.50;44.91
31443;SHT31;18065;55.876;9.830;2024-03-25T07:01:53;25.29;45.28
31443;SHT31;18065;55.876;9.830;2024-03-25T07:04:19;25.12;45.70
31443;SHT31;18065;55.876;9.830;2024-03-25T07:06:45;24.94;46.08
31443;SHT31;18065;55.876;9.830;2024-03-25T07:09:11;24.77;46.45
31443;SHT31;18065;55.876;9.830;2024-03-25T07:11:37;24.56;46.78
31443;SHT31;18065;55.876;9.830;2024-03-25T07:14:03;24.44;47.12
31443;SHT31;18065;55.876;9.830;2024-03-25T07:16:29;24.27;47.41
31443;SHT31;18065;55.876;9.830;2024-03-25T07:18:58;24.16;47.66
31443;SHT31;18065;55.876;9.830;2024-03-25T07:21:24;24.05;47.96
31443;SHT31;18065;55.876;9.830;2024-03-25T07:23:50;23.95;48.21
31443;SHT31;18065;55.876;9.830;2024-03-25T07:26:16;23.84;48.42
31443;SHT31;18065;55.876;9.830;2024-03-25T07:28:42;23.74;48.66
31443;SHT31;18065;55.876;9.830;2024-03-25T07:31:08;25.18;45.87
31443;SHT31;18065;55.876;9.830;2024-03-25T07:33:34;28.19;39.68
31443;SHT31;18065;55.876;9.830;2024-03-25T07:36:04;30.35;35.91
31443;SHT31;18065;55.876;9.830;2024-03-25T07:38:30;31.64;33.85
31443;SHT31;18065;55.876;9.830;2024-03-25T07:40:56;31.85;33.34
31443;SHT31;18065;55.876;9.830;2024-03-25T07:43:22;31.44;34.05
31443;SHT31;18065;55.876;9.830;2024-03-25T07:45:48;30.85;34.95
31443;SHT31;18065;55.876;9.830;2024-03-25T07:48:14;30.39;35.64
31443;SHT31;18065;55.876;9.830;2024-03-25T07:50:40;29.94;36.43
31443;SHT31;18065;55.876;9.830;2024-03-25T07:53:09;29.45;37.33
31443;SHT31;18065;55.876;9.830;2024-03-25T07:55:35;28.95;38.19
31443;SHT31;18065;55.876;9.830;2024-03-25T07:58:01;28.46;39.14
31443;SHT31;18065;55.876;9.830;2024-03-25T08:00:27;28.02;39.94
31443;SHT31;18065;55.876;9.830;2024-03-25T08:02:54;27.65;40.76
31443;SHT31;18065;55.876;9.830;2024-03-25T08:05:20;27.31;41.45
31443;SHT31;18065;55.876;9.830;2024-03-25T08:07:46;27.04;42.04
31443;SHT31;18065;55.876;9.830;2024-03-25T08:10:15;26.85;42.57
31443;SHT31;18065;55.876;9.830;2024-03-25T08:12:41;26.59;43.21
31443;SHT31;18065;55.876;9.830;2024-03-25T08:15:08;26.40;43.81
31443;SHT31;18065;55.876;9.830;2024-03-25T08:17:34;26.21;44.37
31443;SHT31;18065;55.876;9.830;2024-03-25T08:20:00;26.04;44.81
31443;SHT31;18065;55.876;9.830;2024-03-25T08:22:27;25.84;45.30
31443;SHT31;18065;55.876;9.830;2024-03-25T08:24:53;25.69;45.71
31443;SHT31;18065;55.876;9.830;2024-03-25T08:27:21;25.56;46.16
31443;SHT31;18065;55.876;9.830;2024-03-25T08:29:48;25.41;46.57
31443;SHT31;18065;55.876;9.830;2024-03-25T08:32:14;25.29;46.89
31443;SHT31;18065;55.876;9.830;2024-03-25T08:34:40;25.21;47.20
31443;SHT31;18065;55.876;9.830;2024-03-25T08:37:06;25.07;47.50
31443;SHT31;18065;55.876;9.830;2024-03-25T08:39:33;25.00;47.83
31443;SHT31;18065;55.876;9.830;2024-03-25T08:41:59;24.90;48.07
31443;SHT31;18065;55.876;9.830;2024-03-25T08:44:27;24.80;48.27
31443;SHT31;18065;55.876;9.830;2024-03-25T08:46:53;24.73;48.47
31443;SHT31;18065;55.876;9.830;2024-03-25T08:49:20;24.65;48.73
31443;SHT31;18065;55.876;9.830;2024-03-25T08:51:46;24.60;48.94
31443;SHT31;18065;55.876;9.830;2024-03-25T08:54:12;24.54;49.07
31443;SHT31;18065;55.876;9.830;2024-03-25T08:56:38;24.49;49.29
31443;SHT31;18065;55.876;9.830;2024-03-25T08:59:04;24.47;49.45
31443;SHT31;18065;55.876;9.830;2024-03-25T09:01:33;24.40;49.62
31443;SHT31;18065;55.876;9.830;2024-03-25T09:03:59;24.39;49.78
31443;SHT31;18065;55.876;9.830;2024-03-25T09:06:25;24.33;49.96
31443;SHT31;18065;55.876;9.830;2024-03-25T09:08:53;24.30;50.06
31443;SHT31;18065;55.876;9.830;2024-03-25T09:11:34;24.27;50.30
31443;SHT31;18065;55.876;9.830;2024-03-25T09:14:00;24.25;50.41
31443;SHT31;18065;55.876;9.830;2024-03-25T09:16:26;24.22;50.54
31443;SHT31;18065;55.876;9.830;2024-03-25T09:18:55;24.37;50.24
31443;SHT31;18065;55.876;9.830;2024-03-25T09:21:21;24.57;49.77
31443;SHT31;18065;55.876;9.830;2024-03-25T09:23:47;24.67;49.53
31443;SHT31;18065;55.876;9.830;2024-03-25T09:26:13;24.73;49.55
31443;SHT31;18065;55.876;9.830;2024-03-25T09:28:40;24.74;49.62
31443;SHT31;18065;55.876;9.830;2024-03-25T09:31:06;24.75;49.65
31443;SHT31;18065;55.876;9.830;2024-03-25T09:33:32;24.77;49.71
31443;SHT31;18065;55.876;9.830;2024-03-25T09:36:01;24.75;49.82
31443;SHT31;18065;55.876;9.830;2024-03-25T09:38:27;24.70;49.84
31443;SHT31;18065;55.876;9.830;2024-03-25T09:40:53;24.71;50.01
31443;SHT31;18065;55.876;9.830;2024-03-25T09:43:38;24.56;49.51
31443;SHT31;18065;55.876;9.830;2024-03-25T09:46:09;24.50;49.53
31443;SHT31;18065;55.876;9.830;2024-03-25T09:48:36;24.47;49.76
31443;SHT31;18065;55.876;9.830;2024-03-25T09:51:05;24.46;50.23
31443;SHT31;18065;55.876;9.830;2024-03-25T09:53:31;24.44;50.33
31443;SHT31;18065;55.876;9.830;2024-03-25T09:55:57;24.37;50.28
31443;SHT31;18065;55.876;9.830;2024-03-25T09:58:24;24.36;50.38
31443;SHT31;18065;55.876;9.830;2024-03-25T10:00:51;24.32;50.39
31443;SHT31;18065;55.876;9.830;2024-03-25T10:03:17;24.29;50.47
31443;SHT31;18065;55.876;9.830;2024-03-25T10:05:43;24.26;50.44
31443;SHT31;18065;55.876;9.830;2024-03-25T10:08:12;24.20;50.45
31443;SHT31;18065;55.876;9.830;2024-03-25T10:10:38;24.19;50.46
31443;SHT31;18065;55.876;9.830;2024-03-25T10:13:04;24.12;50.46
31443;SHT31;18065;55.876;9.830;2024-03-25T10:15:31;24.12;50.54
31443;SHT31;18065;55.876;9.830;2024-03-25T10:17:57;24.09;50.55
31443;SHT31;18065;55.876;9.830;2024-03-25T10:20:23;24.08;50.52
31443;SHT31;18065;55.876;9.830;2024-03-25T10:22:49;24.03;50.56
31443;SHT31;18065;55.876;9.830;2024-03-25T10:25:26;24.01;50.52
31443;SHT31;18065;55.876;9.830;2024-03-25T10:27:53;23.99;50.55
31443;SHT31;18065;55.876;9.830;2024-03-25T10:30:20;23.98;50.55
31443;SHT31;18065;55.876;9.830;2024-03-25T10:32:57;23.95;50.50
31443;SHT31;18065;55.876;9.830;2024-03-25T10:35:28;23.94;50.55
31443;SHT31;18065;55.876;9.830;2024-03-25T10:37:59;23.91;50.51
31443;SHT31;18065;55.876;9.830;2024-03-25T10:40:29;23.94;50.56
31443;SHT31;18065;55.876;9.830;2024-03-25T10:43:01;23.89;50.54
31443;SHT31;18065;55.876;9.830;2024-03-25T10:45:29;23.91;50.43
31443;SHT31;18065;55.876;9.830;2024-03-25T10:47:57;23.94;50.46
31443;SHT31;18065;55.876;9.830;2024-03-25T10:50:28;23.95;50.46
31443;SHT31;18065;55.876;9.830;2024-03-25T10:52:54;23.95;50.49
31443;SHT31;18065;55.876;9.830;2024-03-25T10:55:23;23.96;50.58
31443;SHT31;18065;55.876;9.830;2024-03-25T10:57:54;23.98;50.55
31443;SHT31;18065;55.876;9.830;2024-03-25T11:00:22;24.02;50.57
31443;SHT31;18065;55.876;9.830;2024-03-25T11:02:48;24.02;50.64
31443;SHT31;18065;55.876;9.830;2024-03-25T11:05:15;24.02;50.64
31443;SHT31;18065;55.876;9.830;2024-03-25T11:07:41;24.02;50.71
31443;SHT31;18065;55.876;9.830;2024-03-25T11:10:08;24.05;50.73
31443;SHT31;18065;55.876;9.830;2024-03-25T11:12:38;24.03;50.73
31443;SHT31;18065;55.876;9.830;2024-03-25T11:15:09;24.03;50.85
31443;SHT31;18065;55.876;9.830;2024-03-25T11:17:36;24.05;50.99
31443;SHT31;18065;55.876;9.830;2024-03-25T11:20:14;24.03;50.80
31443;SHT31;18065;55.876;9.830;2024-03-25T11:22:48;24.06;50.88
31443;SHT31;18065;55.876;9.830;2024-03-25T11:25:14;24.10;51.00
31443;SHT31;18065;55.876;9.830;2024-03-25T11:27:42;23.95;50.81
31443;SHT31;18065;55.876;9.830;2024-03-25T11:30:12;23.66;50.99
31443;SHT31;18065;55.876;9.830;2024-03-25T11:32:46;23.55;51.33
31443;SHT31;18065;55.876;9.830;2024-03-25T11:35:12;23.53;51.67
31443;SHT31;18065;55.876;9.830;2024-03-25T11:37:40;23.54;51.70
31443;SHT31;18065;55.876;9.830;2024-03-25T11:40:07;23.57;51.52
31443;SHT31;18065;55.876;9.830;2024-03-25T11:42:34;23.58;51.42
31443;SHT31;18065;55.876;9.830;2024-03-25T11:45:01;23.57;51.40
31443;SHT31;18065;55.876;9.830;2024-03-25T11:47:30;23.55;51.38
31443;SHT31;18065;55.876;9.830;2024-03-25T11:49:56;23.55;51.36
31443;SHT31;18065;55.876;9.830;2024-03-25T11:52:22;23.59;51.37
31443;SHT31;18065;55.876;9.830;2024-03-25T11:54:54;23.68;51.14
31443;SHT31;18065;55.876;9.830;2024-03-25T11:57:20;23.78;50.83
31443;SHT31;18065;55.876;9.830;2024-03-25T11:59:47;23.82;50.82
31443;SHT31;18065;55.876;9.830;2024-03-25T12:02:15;23.86;50.77
31443;SHT31;18065;55.876;9.830;2024-03-25T12:04:45;23.88;50.70
31443;SHT31;18065;55.876;9.830;2024-03-25T12:07:12;23.89;50.68
31443;SHT31;18065;55.876;9.830;2024-03-25T12:09:38;23.91;50.81
31443;SHT31;18065;55.876;9.830;2024-03-25T12:12:19;23.92;50.80
31443;SHT31;18065;55.876;9.830;2024-03-25T12:14:46;23.92;50.75
31443;SHT31;18065;55.876;9.830;2024-03-25T12:17:12;23.92;50.79
31443;SHT31;18065;55.876;9.830;2024-03-25T12:19:38;23.94;50.73
31443;SHT31;18065;55.876;9.830;2024-03-25T12:22:07;23.96;50.68
31443;SHT31;18065;55.876;9.830;2024-03-25T12:24:33;23.95;50.68
31443;SHT31;18065;55.876;9.830;2024-03-25T12:27:00;23.95;50.69
31443;SHT31;18065;55.876;9.830;2024-03-25T12:29:26;23.95;50.71
31443;SHT31;18065;55.876;9.830;2024-03-25T12:31:56;23.96;50.63
31443;SHT31;18065;55.876;9.830;2024-03-25T12:34:22;23.96;50.61
31443;SHT31;18065;55.876;9.830;2024-03-25T12:36:48;23.98;50.61
31443;SHT31;18065;55.876;9.830;2024-03-25T12:39:20;23.95;50.58
31443;SHT31;18065;55.876;9.830;2024-03-25T12:41:46;23.99;50.81
31443;SHT31;18065;55.876;9.830;2024-03-25T12:44:12;23.96;50.64
31443;SHT31;18065;55.876;9.830;2024-03-25T12:46:38;23.96;50.63
31443;SHT31;18065;55.876;9.830;2024-03-25T12:49:05;23.95;50.64
31443;SHT31;18065;55.876;9.830;2024-03-25T12:51:32;23.96;50.66
31443;SHT31;18065;55.876;9.830;2024-03-25T12:53:58;23.98;50.66
31443;SHT31;18065;55.876;9.830;2024-03-25T12:56:26;23.99;50.64
31443;SHT31;18065;55.876;9.830;2024-03-25T12:58:53;23.98;50.61
31443;SHT31;18065;55.876;9.830;2024-03-25T13:01:19;23.98;50.62
31443;SHT31;18065;55.876;9.830;2024-03-25T13:03:45;23.99;50.65
31443;SHT31;18065;55.876;9.830;2024-03-25T13:06:11;23.99;50.67
31443;SHT31;18065;55.876;9.830;2024-03-25T13:08:37;23.98;50.70
31443;SHT31;18065;55.876;9.830;2024-03-25T13:11:03;23.99;50.72
31443;SHT31;18065;55.876;9.830;2024-03-25T13:13:32;23.98;50.68
31443;SHT31;18065;55.876;9.830;2024-03-25T13:15:58;23.99;50.71
31443;SHT31;18065;55.876;9.830;2024-03-25T13:18:24;24.02;50.73
31443;SHT31;18065;55.876;9.830;2024-03-25T13:20:50;24.01;50.70
31443;SHT31;18065;55.876;9.830;2024-03-25T13:23:17;24.01;50.75
31443;SHT31;18065;55.876;9.830;2024-03-25T13:25:43;23.99;50.73
31443;SHT31;18065;55.876;9.830;2024-03-25T13:28:09;24.02;50.68
31443;SHT31;18065;55.876;9.830;2024-03-25T13:30:38;24.02;50.69
31443;SHT31;18065;55.876;9.830;2024-03-25T13:33:04;23.96;50.80
31443;SHT31;18065;55.876;9.830;2024-03-25T13:35:30;23.85;51.01
31443;SHT31;18065;55.876;9.830;2024-03-25T13:37:56;23.81;51.02
31443;SHT31;18065;55.876;9.830;2024-03-25T13:40:23;23.86;50.86
31443;SHT31;18065;55.876;9.830;2024-03-25T13:42:49;23.89;50.77
31443;SHT31;18065;55.876;9.830;2024-03-25T13:45:15;23.92;50.78
31443;SHT31;18065;55.876;9.830;2024-03-25T13:47:43;23.84;51.03
31443;SHT31;18065;55.876;9.830;2024-03-25T13:50:10;23.78;51.16
31443;SHT31;18065;55.876;9.830;2024-03-25T13:52:36;23.77;51.16
31443;SHT31;18065;55.876;9.830;2024-03-25T13:55:02;23.73;51.22
31443;SHT31;18065;55.876;9.830;2024-03-25T13:57:28;23.69;51.28
31443;SHT31;18065;55.876;9.830;2024-03-25T13:59:54;23.69;51.38
31443;SHT31;18065;55.876;9.830;2024-03-25T14:02:21;23.68;51.32
31443;SHT31;18065;55.876;9.830;2024-03-25T14:04:49;23.65;51.35
31443;SHT31;18065;55.876;9.830;2024-03-25T14:07:15;23.62;51.42
31443;SHT31;18065;55.876;9.830;2024-03-25T14:09:42;23.57;51.46
31443;SHT31;18065;55.876;9.830;2024-03-25T14:12:08;23.59;51.47
31443;SHT31;18065;55.876;9.830;2024-03-25T14:14:34;23.58;51.51
31443;SHT31;18065;55.876;9.830;2024-03-25T14:17:00;23.57;51.51
31443;SHT31;18065;55.876;9.830;2024-03-25T14:19:26;23.55;51.53
31443;SHT31;18065;55.876;9.830;2024-03-25T14:21:55;23.58;51.47
31443;SHT31;18065;55.876;9.830;2024-03-25T14:24:21;23.57;51.47
31443;SHT31;18065;55.876;9.830;2024-03-25T14:26:47;23.57;51.55
31443;SHT31;18065;55.876;9.830;2024-03-25T14:29:13;23.57;51.54
31443;SHT31;18065;55.876;9.830;2024-03-25T14:31:39;23.57;51.58
31443;SHT31;18065;55.876;9.830;2024-03-25T14:34:06;23.58;51.56
31443;SHT31;18065;55.876;9.830;2024-03-25T14:36:32;23.54;51.58
31443;SHT31;18065;55.876;9.830;2024-03-25T14:39:01;23.55;51.51
31443;SHT31;18065;55.876;9.830;2024-03-25T14:41:27;23.55;51.61
31443;SHT31;18065;55.876;9.830;2024-03-25T14:44:03;23.54;51.65
31443;SHT31;18065;55.876;9.830;2024-03-25T14:46:29;23.54;51.68
31443;SHT31;18065;55.876;9.830;2024-03-25T14:48:56;23.64;51.45
31443;SHT31;18065;55.876;9.830;2024-03-25T14:51:22;23.71;51.29
31443;SHT31;18065;55.876;9.830;2024-03-25T14:53:48;23.69;51.20
31443;SHT31;18065;55.876;9.830;2024-03-25T14:56:17;23.75;51.15
31443;SHT31;18065;55.876;9.830;2024-03-25T14:58:43;23.73;51.14
31443;SHT31;18065;55.876;9.830;2024-03-25T15:01:10;23.73;51.14
31443;SHT31;18065;55.876;9.830;2024-03-25T15:03:36;23.75;51.12
31443;SHT31;18065;55.876;9.830;2024-03-25T15:06:02;23.73;51.17
31443;SHT31;18065;55.876;9.830;2024-03-25T15:08:31;23.75;51.19
31443;SHT31;18065;55.876;9.830;2024-03-25T15:10:57;23.73;51.19
31443;SHT31;18065;55.876;9.830;2024-03-25T15:13:26;23.73;51.24
31443;SHT31;18065;55.876;9.830;2024-03-25T15:15:52;23.68;51.30
31443;SHT31;18065;55.876;9.830;2024-03-25T15:18:18;23.71;51.34
31443;SHT31;18065;55.876;9.830;2024-03-25T15:20:44;23.68;51.35
31443;SHT31;18065;55.876;9.830;2024-03-25T15:23:10;23.64;51.40
31443;SHT31;18065;55.876;9.830;2024-03-25T15:25:36;23.62;51.41
31443;SHT31;18065;55.876;9.830;2024-03-25T15:28:03;23.62;51.49